Arcola, Missouri
Current Conditions -  °F | °C
As of 7:52 PM on Friday 24 Oct 2014 (Local Time) from KSGF Reporting Station
Clear Clear  
Wind Chill: 65°   Ceiling: Unl
Heat Index: 65°   Visibility: 10mi
Dew Point: 59°   Wind: 9mph
Humidity: 81%   Direction: 180°S
Pressure: 30.03"   Gusts: NA
Location:  37.55°N, 93.88°W
Report Text: KSGF 250052Z 18008KT 10SM CLR 18/15 A3003 RMK AO2 SLP167 T01830150
Loading
Personal Weather Stations






























Interactive Weather Map
Tropical Storm Tracking
New forecast layout! Learn more

10-Day Weather Forecast

Advertisements
Track Severe Weather on mobile